sensor_id;sensor_type;location;lat;lon;timestamp;temperature;humidity
32293;DHT22;43233;48.608;8.838;2023-07-24T00:00:20;20.00;52.20
32293;DHT22;43233;48.608;8.838;2023-07-24T00:02:46;20.10;52.10
32293;DHT22;43233;48.608;8.838;2023-07-24T00:05:12;20.10;52.10
32293;DHT22;43233;48.608;8.838;2023-07-24T00:07:37;20.00;52.00
32293;DHT22;43233;48.608;8.838;2023-07-24T00:10:03;20.00;52.10
32293;DHT22;43233;48.608;8.838;2023-07-24T00:12:29;20.00;52.20
32293;DHT22;43233;48.608;8.838;2023-07-24T00:14:55;20.00;52.30
32293;DHT22;43233;48.608;8.838;2023-07-24T00:17:20;20.10;52.70
32293;DHT22;43233;48.608;8.838;2023-07-24T00:19:46;20.00;52.30
32293;DHT22;43233;48.608;8.838;2023-07-24T00:22:12;20.00;52.00
32293;DHT22;43233;48.608;8.838;2023-07-24T00:24:37;20.00;51.70
32293;DHT22;43233;48.608;8.838;2023-07-24T00:27:03;20.00;51.80
32293;DHT22;43233;48.608;8.838;2023-07-24T00:29:29;19.90;52.60
32293;DHT22;43233;48.608;8.838;2023-07-24T00:31:54;19.90;53.00
32293;DHT22;43233;48.608;8.838;2023-07-24T00:34:20;19.90;53.30
32293;DHT22;43233;48.608;8.838;2023-07-24T00:36:46;19.90;53.10
32293;DHT22;43233;48.608;8.838;2023-07-24T00:39:13;19.90;53.20
32293;DHT22;43233;48.608;8.838;2023-07-24T00:41:39;19.80;52.80
32293;DHT22;43233;48.608;8.838;2023-07-24T00:44:05;19.80;53.50
32293;DHT22;43233;48.608;8.838;2023-07-24T00:46:30;19.80;54.20
32293;DHT22;43233;48.608;8.838;2023-07-24T00:48:58;19.70;54.20
32293;DHT22;43233;48.608;8.838;2023-07-24T00:51:26;19.70;54.50
32293;DHT22;43233;48.608;8.838;2023-07-24T00:53:56;19.70;54.50
32293;DHT22;43233;48.608;8.838;2023-07-24T00:56:22;19.70;54.80
32293;DHT22;43233;48.608;8.838;2023-07-24T00:58:48;19.70;54.90
32293;DHT22;43233;48.608;8.838;2023-07-24T01:01:16;19.60;54.80
32293;DHT22;43233;48.608;8.838;2023-07-24T01:03:42;19.60;55.00
32293;DHT22;43233;48.608;8.838;2023-07-24T01:06:09;19.60;55.40
32293;DHT22;43233;48.608;8.838;2023-07-24T01:08:35;19.50;55.70
32293;DHT22;43233;48.608;8.838;2023-07-24T01:11:23;19.50;55.80
32293;DHT22;43233;48.608;8.838;2023-07-24T01:16:37;19.30;55.70
32293;DHT22;43233;48.608;8.838;2023-07-24T01:19:12;19.30;55.60
32293;DHT22;43233;48.608;8.838;2023-07-24T01:21:50;19.30;55.50
32293;DHT22;43233;48.608;8.838;2023-07-24T01:24:36;19.30;55.80
32293;DHT22;43233;48.608;8.838;2023-07-24T01:27:04;19.30;55.60
32293;DHT22;43233;48.608;8.838;2023-07-24T01:29:30;19.30;55.50
32293;DHT22;43233;48.608;8.838;2023-07-24T01:31:55;19.30;55.90
32293;DHT22;43233;48.608;8.838;2023-07-24T01:34:21;19.30;55.80
32293;DHT22;43233;48.608;8.838;2023-07-24T01:36:47;19.20;56.40
32293;DHT22;43233;48.608;8.838;2023-07-24T01:39:14;19.10;56.70
32293;DHT22;43233;48.608;8.838;2023-07-24T01:41:40;19.00;57.20
32293;DHT22;43233;48.608;8.838;2023-07-24T01:44:06;19.00;57.50
32293;DHT22;43233;48.608;8.838;2023-07-24T01:46:32;19.00;57.80
32293;DHT22;43233;48.608;8.838;2023-07-24T01:48:57;18.90;58.10
32293;DHT22;43233;48.608;8.838;2023-07-24T01:51:23;18.90;58.50
32293;DHT22;43233;48.608;8.838;2023-07-24T01:53:48;18.90;58.50
32293;DHT22;43233;48.608;8.838;2023-07-24T01:56:14;18.90;58.60
32293;DHT22;43233;48.608;8.838;2023-07-24T01:58:40;18.90;58.70
32293;DHT22;43233;48.608;8.838;2023-07-24T02:01:05;18.90;58.80
32293;DHT22;43233;48.608;8.838;2023-07-24T02:03:31;18.90;59.00
32293;DHT22;43233;48.608;8.838;2023-07-24T02:05:56;19.00;59.30
32293;DHT22;43233;48.608;8.838;2023-07-24T02:08:22;19.00;59.10
32293;DHT22;43233;48.608;8.838;2023-07-24T02:10:51;18.90;59.40
32293;DHT22;43233;48.608;8.838;2023-07-24T02:13:16;18.90;59.60
32293;DHT22;43233;48.608;8.838;2023-07-24T02:15:42;18.80;59.90
32293;DHT22;43233;48.608;8.838;2023-07-24T02:18:07;18.80;60.40
32293;DHT22;43233;48.608;8.838;2023-07-24T02:20:33;18.70;60.80
32293;DHT22;43233;48.608;8.838;2023-07-24T02:22:59;18.60;61.00
32293;DHT22;43233;48.608;8.838;2023-07-24T02:25:24;18.50;61.00
32293;DHT22;43233;48.608;8.838;2023-07-24T02:27:50;18.50;61.10
32293;DHT22;43233;48.608;8.838;2023-07-24T02:30:15;18.50;61.10
32293;DHT22;43233;48.608;8.838;2023-07-24T02:32:41;18.40;61.00
32293;DHT22;43233;48.608;8.838;2023-07-24T02:35:07;18.40;60.90
32293;DHT22;43233;48.608;8.838;2023-07-24T02:37:33;18.40;60.80
32293;DHT22;43233;48.608;8.838;2023-07-24T02:39:58;18.40;60.70
32293;DHT22;43233;48.608;8.838;2023-07-24T02:42:24;18.40;60.70
32293;DHT22;43233;48.608;8.838;2023-07-24T02:44:49;18.40;60.70
32293;DHT22;43233;48.608;8.838;2023-07-24T02:47:15;18.40;60.80
32293;DHT22;43233;48.608;8.838;2023-07-24T02:49:40;18.30;60.90
32293;DHT22;43233;48.608;8.838;2023-07-24T02:52:06;18.30;60.80
32293;DHT22;43233;48.608;8.838;2023-07-24T02:54:32;18.30;61.40
32293;DHT22;43233;48.608;8.838;2023-07-24T02:56:57;18.30;61.10
32293;DHT22;43233;48.608;8.838;2023-07-24T02:59:23;18.30;61.20
32293;DHT22;43233;48.608;8.838;2023-07-24T03:01:49;18.30;61.20
32293;DHT22;43233;48.608;8.838;2023-07-24T03:04:14;18.20;61.10
32293;DHT22;43233;48.608;8.838;2023-07-24T03:06:40;18.20;61.30
32293;DHT22;43233;48.608;8.838;2023-07-24T03:09:06;18.20;61.20
32293;DHT22;43233;48.608;8.838;2023-07-24T03:11:32;18.10;61.60
32293;DHT22;43233;48.608;8.838;2023-07-24T03:13:57;18.10;61.70
32293;DHT22;43233;48.608;8.838;2023-07-24T03:16:23;18.00;61.50
32293;DHT22;43233;48.608;8.838;2023-07-24T03:18:48;18.00;62.00
32293;DHT22;43233;48.608;8.838;2023-07-24T03:21:14;17.80;62.30
32293;DHT22;43233;48.608;8.838;2023-07-24T03:23:40;17.80;62.60
32293;DHT22;43233;48.608;8.838;2023-07-24T03:26:05;17.80;62.90
32293;DHT22;43233;48.608;8.838;2023-07-24T03:28:31;17.80;62.90
32293;DHT22;43233;48.608;8.838;2023-07-24T03:30:57;17.80;62.60
32293;DHT22;43233;48.608;8.838;2023-07-24T03:33:22;17.80;62.50
32293;DHT22;43233;48.608;8.838;2023-07-24T03:35:48;17.80;62.90
32293;DHT22;43233;48.608;8.838;2023-07-24T03:38:13;17.70;63.40
32293;DHT22;43233;48.608;8.838;2023-07-24T03:40:39;17.70;63.60
32293;DHT22;43233;48.608;8.838;2023-07-24T03:43:05;17.70;63.70
32293;DHT22;43233;48.608;8.838;2023-07-24T03:45:31;17.70;65.10
32293;DHT22;43233;48.608;8.838;2023-07-24T03:47:57;17.60;64.20
32293;DHT22;43233;48.608;8.838;2023-07-24T03:50:22;17.60;64.30
32293;DHT22;43233;48.608;8.838;2023-07-24T03:52:48;17.60;65.10
32293;DHT22;43233;48.608;8.838;2023-07-24T03:55:14;17.70;64.40
32293;DHT22;43233;48.608;8.838;2023-07-24T03:57:39;17.70;64.20
32293;DHT22;43233;48.608;8.838;2023-07-24T04:00:06;17.70;63.90
32293;DHT22;43233;48.608;8.838;2023-07-24T04:02:31;17.80;64.20
32293;DHT22;43233;48.608;8.838;2023-07-24T04:04:57;17.80;64.20
32293;DHT22;43233;48.608;8.838;2023-07-24T04:07:23;17.80;64.30
32293;DHT22;43233;48.608;8.838;2023-07-24T04:09:49;17.80;64.10
32293;DHT22;43233;48.608;8.838;2023-07-24T04:12:15;17.90;64.20
32293;DHT22;43233;48.608;8.838;2023-07-24T04:14:40;17.90;63.70
32293;DHT22;43233;48.608;8.838;2023-07-24T04:17:06;18.00;63.10
32293;DHT22;43233;48.608;8.838;2023-07-24T04:19:32;18.10;62.90
32293;DHT22;43233;48.608;8.838;2023-07-24T04:21:57;18.10;63.00
32293;DHT22;43233;48.608;8.838;2023-07-24T04:24:23;18.20;63.00
32293;DHT22;43233;48.608;8.838;2023-07-24T04:26:49;18.20;63.10
32293;DHT22;43233;48.608;8.838;2023-07-24T04:29:14;18.30;63.30
32293;DHT22;43233;48.608;8.838;2023-07-24T04:31:40;18.20;63.50
32293;DHT22;43233;48.608;8.838;2023-07-24T04:34:06;18.30;63.30
32293;DHT22;43233;48.608;8.838;2023-07-24T04:36:34;18.30;63.90
32293;DHT22;43233;48.608;8.838;2023-07-24T04:39:00;18.30;64.10
32293;DHT22;43233;48.608;8.838;2023-07-24T04:41:26;18.20;64.50
32293;DHT22;43233;48.608;8.838;2023-07-24T04:43:51;18.20;64.50
32293;DHT22;43233;48.608;8.838;2023-07-24T04:46:17;18.20;65.40
32293;DHT22;43233;48.608;8.838;2023-07-24T04:48:42;18.20;65.10
32293;DHT22;43233;48.608;8.838;2023-07-24T04:51:08;18.30;65.20
32293;DHT22;43233;48.608;8.838;2023-07-24T04:53:34;18.20;65.40
32293;DHT22;43233;48.608;8.838;2023-07-24T04:56:00;18.30;65.20
32293;DHT22;43233;48.608;8.838;2023-07-24T04:58:25;18.30;65.80
32293;DHT22;43233;48.608;8.838;2023-07-24T05:00:51;18.30;65.80
32293;DHT22;43233;48.608;8.838;2023-07-24T05:03:17;18.30;65.50
32293;DHT22;43233;48.608;8.838;2023-07-24T05:05:43;18.30;65.70
32293;DHT22;43233;48.608;8.838;2023-07-24T05:08:09;18.30;65.90
32293;DHT22;43233;48.608;8.838;2023-07-24T05:10:36;18.30;65.90
32293;DHT22;43233;48.608;8.838;2023-07-24T05:13:01;18.20;66.40
32293;DHT22;43233;48.608;8.838;2023-07-24T05:15:27;18.20;66.60
32293;DHT22;43233;48.608;8.838;2023-07-24T05:17:53;18.10;66.80
32293;DHT22;43233;48.608;8.838;2023-07-24T05:20:19;18.10;66.50
32293;DHT22;43233;48.608;8.838;2023-07-24T05:22:44;18.10;66.40
32293;DHT22;43233;48.608;8.838;2023-07-24T05:25:12;18.10;66.50
32293;DHT22;43233;48.608;8.838;2023-07-24T05:27:38;18.10;66.80
32293;DHT22;43233;48.608;8.838;2023-07-24T05:30:05;18.10;66.40
32293;DHT22;43233;48.608;8.838;2023-07-24T05:32:30;18.20;66.50
32293;DHT22;43233;48.608;8.838;2023-07-24T05:34:56;18.20;66.70
32293;DHT22;43233;48.608;8.838;2023-07-24T05:37:22;18.20;66.50
32293;DHT22;43233;48.608;8.838;2023-07-24T05:39:47;18.20;66.10
32293;DHT22;43233;48.608;8.838;2023-07-24T05:42:13;18.30;66.00
32293;DHT22;43233;48.608;8.838;2023-07-24T05:44:39;18.40;65.90
32293;DHT22;43233;48.608;8.838;2023-07-24T05:47:04;18.50;66.20
32293;DHT22;43233;48.608;8.838;2023-07-24T05:49:30;18.50;66.30
32293;DHT22;43233;48.608;8.838;2023-07-24T05:51:56;18.50;67.40
32293;DHT22;43233;48.608;8.838;2023-07-24T05:54:22;18.40;67.10
32293;DHT22;43233;48.608;8.838;2023-07-24T05:56:48;18.50;66.70
32293;DHT22;43233;48.608;8.838;2023-07-24T05:59:14;18.50;66.20
32293;DHT22;43233;48.608;8.838;2023-07-24T06:01:40;18.60;66.00
32293;DHT22;43233;48.608;8.838;2023-07-24T06:04:05;18.60;66.30
32293;DHT22;43233;48.608;8.838;2023-07-24T06:06:33;18.60;66.50
32293;DHT22;43233;48.608;8.838;2023-07-24T06:08:58;18.70;66.40
32293;DHT22;43233;48.608;8.838;2023-07-24T06:11:24;18.70;65.80
32293;DHT22;43233;48.608;8.838;2023-07-24T06:13:51;18.70;65.80
32293;DHT22;43233;48.608;8.838;2023-07-24T06:16:18;18.70;65.80
32293;DHT22;43233;48.608;8.838;2023-07-24T06:18:43;18.70;66.50
32293;DHT22;43233;48.608;8.838;2023-07-24T06:21:09;18.70;65.40
32293;DHT22;43233;48.608;8.838;2023-07-24T06:23:35;18.70;65.50
32293;DHT22;43233;48.608;8.838;2023-07-24T06:26:00;18.70;66.10
32293;DHT22;43233;48.608;8.838;2023-07-24T06:28:26;18.70;66.30
32293;DHT22;43233;48.608;8.838;2023-07-24T06:30:52;18.50;67.50
32293;DHT22;43233;48.608;8.838;2023-07-24T06:33:19;18.50;67.60
32293;DHT22;43233;48.608;8.838;2023-07-24T06:35:50;18.50;68.20
32293;DHT22;43233;48.608;8.838;2023-07-24T06:38:16;18.50;68.30
32293;DHT22;43233;48.608;8.838;2023-07-24T06:40:42;18.60;68.80
32293;DHT22;43233;48.608;8.838;2023-07-24T06:43:08;18.60;68.70
32293;DHT22;43233;48.608;8.838;2023-07-24T06:45:34;18.70;68.80
32293;DHT22;43233;48.608;8.838;2023-07-24T06:47:59;18.80;69.00
32293;DHT22;43233;48.608;8.838;2023-07-24T06:50:25;18.90;69.10
32293;DHT22;43233;48.608;8.838;2023-07-24T06:52:51;19.00;68.30
32293;DHT22;43233;48.608;8.838;2023-07-24T06:55:19;19.10;67.70
32293;DHT22;43233;48.608;8.838;2023-07-24T06:57:45;19.10;67.10
32293;DHT22;43233;48.608;8.838;2023-07-24T07:00:11;19.20;67.00
32293;DHT22;43233;48.608;8.838;2023-07-24T07:02:37;19.20;67.40
32293;DHT22;43233;48.608;8.838;2023-07-24T07:05:04;19.20;67.90
32293;DHT22;43233;48.608;8.838;2023-07-24T07:07:30;19.30;68.30
32293;DHT22;43233;48.608;8.838;2023-07-24T07:09:55;19.30;68.20
32293;DHT22;43233;48.608;8.838;2023-07-24T07:12:21;19.40;68.50
32293;DHT22;43233;48.608;8.838;2023-07-24T07:14:47;19.40;68.00
32293;DHT22;43233;48.608;8.838;2023-07-24T07:17:13;19.50;68.20
32293;DHT22;43233;48.608;8.838;2023-07-24T07:19:38;19.60;68.00
32293;DHT22;43233;48.608;8.838;2023-07-24T07:22:04;19.70;68.10
32293;DHT22;43233;48.608;8.838;2023-07-24T07:24:30;19.80;67.80
32293;DHT22;43233;48.608;8.838;2023-07-24T07:26:55;19.90;67.70
32293;DHT22;43233;48.608;8.838;2023-07-24T07:29:21;20.00;67.60
32293;DHT22;43233;48.608;8.838;2023-07-24T07:31:47;20.00;68.10
32293;DHT22;43233;48.608;8.838;2023-07-24T07:34:12;20.00;68.50
32293;DHT22;43233;48.608;8.838;2023-07-24T07:36:38;20.00;68.80
32293;DHT22;43233;48.608;8.838;2023-07-24T07:39:04;20.00;68.80
32293;DHT22;43233;48.608;8.838;2023-07-24T07:41:29;20.10;68.70
32293;DHT22;43233;48.608;8.838;2023-07-24T07:43:55;20.10;68.80
32293;DHT22;43233;48.608;8.838;2023-07-24T07:46:21;20.10;69.10
32293;DHT22;43233;48.608;8.838;2023-07-24T07:48:46;20.10;69.30
32293;DHT22;43233;48.608;8.838;2023-07-24T07:51:12;20.10;69.90
32293;DHT22;43233;48.608;8.838;2023-07-24T07:53:38;20.10;68.70
32293;DHT22;43233;48.608;8.838;2023-07-24T07:56:04;20.10;69.60
32293;DHT22;43233;48.608;8.838;2023-07-24T07:58:30;20.10;69.90
32293;DHT22;43233;48.608;8.838;2023-07-24T08:00:55;20.10;71.40
32293;DHT22;43233;48.608;8.838;2023-07-24T08:03:21;19.80;74.90
32293;DHT22;43233;48.608;8.838;2023-07-24T08:05:47;19.50;77.80
32293;DHT22;43233;48.608;8.838;2023-07-24T08:08:13;19.30;81.20
32293;DHT22;43233;48.608;8.838;2023-07-24T08:10:39;19.10;83.20
32293;DHT22;43233;48.608;8.838;2023-07-24T08:13:05;19.00;83.70
32293;DHT22;43233;48.608;8.838;2023-07-24T08:15:36;18.90;84.90
32293;DHT22;43233;48.608;8.838;2023-07-24T08:18:05;18.80;86.40
32293;DHT22;43233;48.608;8.838;2023-07-24T08:20:34;18.70;87.60
32293;DHT22;43233;48.608;8.838;2023-07-24T08:23:00;18.70;88.90
32293;DHT22;43233;48.608;8.838;2023-07-24T08:25:28;18.70;89.00
32293;DHT22;43233;48.608;8.838;2023-07-24T08:27:53;18.60;88.80
32293;DHT22;43233;48.608;8.838;2023-07-24T08:30:19;18.70;88.10
32293;DHT22;43233;48.608;8.838;2023-07-24T08:32:45;18.80;86.90
32293;DHT22;43233;48.608;8.838;2023-07-24T08:35:10;18.90;85.20
32293;DHT22;43233;48.608;8.838;2023-07-24T08:37:36;19.00;85.40
32293;DHT22;43233;48.608;8.838;2023-07-24T08:40:02;19.10;84.70
32293;DHT22;43233;48.608;8.838;2023-07-24T08:42:28;19.20;85.80
32293;DHT22;43233;48.608;8.838;2023-07-24T08:44:55;19.30;85.70
32293;DHT22;43233;48.608;8.838;2023-07-24T08:47:23;19.30;85.80
32293;DHT22;43233;48.608;8.838;2023-07-24T08:49:49;19.30;85.80
32293;DHT22;43233;48.608;8.838;2023-07-24T08:52:16;19.40;83.00
32293;DHT22;43233;48.608;8.838;2023-07-24T08:54:42;19.40;83.20
32293;DHT22;43233;48.608;8.838;2023-07-24T08:57:09;19.40;83.80
32293;DHT22;43233;48.608;8.838;2023-07-24T08:59:35;19.40;85.00
32293;DHT22;43233;48.608;8.838;2023-07-24T09:02:01;19.30;86.40
32293;DHT22;43233;48.608;8.838;2023-07-24T09:04:26;19.30;86.40
32293;DHT22;43233;48.608;8.838;2023-07-24T09:06:53;19.40;86.40
32293;DHT22;43233;48.608;8.838;2023-07-24T09:09:21;19.50;85.00
32293;DHT22;43233;48.608;8.838;2023-07-24T09:11:51;19.50;85.40
32293;DHT22;43233;48.608;8.838;2023-07-24T09:14:22;19.60;85.10
32293;DHT22;43233;48.608;8.838;2023-07-24T09:16:48;19.70;85.00
32293;DHT22;43233;48.608;8.838;2023-07-24T09:19:17;19.70;85.90
32293;DHT22;43233;48.608;8.838;2023-07-24T09:21:44;19.70;85.50
32293;DHT22;43233;48.608;8.838;2023-07-24T09:24:14;19.80;84.70
32293;DHT22;43233;48.608;8.838;2023-07-24T09:26:49;19.80;84.50
32293;DHT22;43233;48.608;8.838;2023-07-24T09:29:16;19.90;84.00
32293;DHT22;43233;48.608;8.838;2023-07-24T09:31:42;19.90;84.00
32293;DHT22;43233;48.608;8.838;2023-07-24T09:34:18;19.90;84.50
32293;DHT22;43233;48.608;8.838;2023-07-24T09:36:44;19.90;85.60
32293;DHT22;43233;48.608;8.838;2023-07-24T09:39:10;19.90;87.40
32293;DHT22;43233;48.608;8.838;2023-07-24T09:41:38;19.90;87.30
32293;DHT22;43233;48.608;8.838;2023-07-24T09:44:04;19.80;87.00
32293;DHT22;43233;48.608;8.838;2023-07-24T09:46:30;19.80;87.20
32293;DHT22;43233;48.608;8.838;2023-07-24T09:48:57;19.70;87.80
32293;DHT22;43233;48.608;8.838;2023-07-24T09:51:24;19.70;88.60
32293;DHT22;43233;48.608;8.838;2023-07-24T09:54:00;19.60;88.30
32293;DHT22;43233;48.608;8.838;2023-07-24T09:56:30;19.60;88.30
32293;DHT22;43233;48.608;8.838;2023-07-24T09:58:58;19.60;87.70
32293;DHT22;43233;48.608;8.838;2023-07-24T10:01:25;19.60;87.70
32293;DHT22;43233;48.608;8.838;2023-07-24T10:03:51;19.60;87.40
32293;DHT22;43233;48.608;8.838;2023-07-24T10:06:17;19.60;87.10
32293;DHT22;43233;48.608;8.838;2023-07-24T10:08:44;19.60;86.90
32293;DHT22;43233;48.608;8.838;2023-07-24T10:11:11;19.50;87.70
32293;DHT22;43233;48.608;8.838;2023-07-24T10:13:38;19.50;88.10
32293;DHT22;43233;48.608;8.838;2023-07-24T10:16:04;19.50;88.70
32293;DHT22;43233;48.608;8.838;2023-07-24T10:18:33;19.50;88.90
32293;DHT22;43233;48.608;8.838;2023-07-24T10:21:04;19.40;89.70
32293;DHT22;43233;48.608;8.838;2023-07-24T10:23:31;19.50;89.00
32293;DHT22;43233;48.608;8.838;2023-07-24T10:26:03;19.50;89.50
32293;DHT22;43233;48.608;8.838;2023-07-24T10:28:31;19.50;89.70
32293;DHT22;43233;48.608;8.838;2023-07-24T10:30:57;19.50;89.90
32293;DHT22;43233;48.608;8.838;2023-07-24T10:33:23;19.40;88.80
32293;DHT22;43233;48.608;8.838;2023-07-24T10:36:04;19.40;90.40
32293;DHT22;43233;48.608;8.838;2023-07-24T10:38:37;19.30;91.40
32293;DHT22;43233;48.608;8.838;2023-07-24T10:41:05;19.30;91.20
32293;DHT22;43233;48.608;8.838;2023-07-24T10:43:42;19.30;91.40
32293;DHT22;43233;48.608;8.838;2023-07-24T10:46:09;19.20;92.70
32293;DHT22;43233;48.608;8.838;2023-07-24T10:48:34;19.10;93.10
32293;DHT22;43233;48.608;8.838;2023-07-24T10:51:09;19.00;93.30
32293;DHT22;43233;48.608;8.838;2023-07-24T10:53:36;18.90;94.30
32293;DHT22;43233;48.608;8.838;2023-07-24T10:56:06;18.80;94.10
32293;DHT22;43233;48.608;8.838;2023-07-24T10:58:32;18.70;94.70
32293;DHT22;43233;48.608;8.838;2023-07-24T11:00:58;18.60;95.10
32293;DHT22;43233;48.608;8.838;2023-07-24T11:03:24;18.60;94.40
32293;DHT22;43233;48.608;8.838;2023-07-24T11:05:50;18.60;93.00
32293;DHT22;43233;48.608;8.838;2023-07-24T11:08:20;18.60;93.30
32293;DHT22;43233;48.608;8.838;2023-07-24T11:10:51;18.70;92.90
32293;DHT22;43233;48.608;8.838;2023-07-24T11:13:19;18.70;92.40
32293;DHT22;43233;48.608;8.838;2023-07-24T11:15:45;18.70;92.80
32293;DHT22;43233;48.608;8.838;2023-07-24T11:18:10;18.70;93.00
32293;DHT22;43233;48.608;8.838;2023-07-24T11:20:38;18.80;93.20
32293;DHT22;43233;48.608;8.838;2023-07-24T11:23:04;18.90;93.90
32293;DHT22;43233;48.608;8.838;2023-07-24T11:25:30;19.00;94.00
32293;DHT22;43233;48.608;8.838;2023-07-24T11:27:55;19.00;95.40
32293;DHT22;43233;48.608;8.838;2023-07-24T11:30:21;19.20;97.80
32293;DHT22;43233;48.608;8.838;2023-07-24T11:32:48;19.30;97.70
32293;DHT22;43233;48.608;8.838;2023-07-24T11:35:14;19.50;97.90
32293;DHT22;43233;48.608;8.838;2023-07-24T11:37:40;19.80;95.10
32293;DHT22;43233;48.608;8.838;2023-07-24T11:40:06;20.00;93.60
32293;DHT22;43233;48.608;8.838;2023-07-24T11:42:43;20.00;91.10
32293;DHT22;43233;48.608;8.838;2023-07-24T11:45:09;20.10;89.90
32293;DHT22;43233;48.608;8.838;2023-07-24T11:47:48;20.00;89.90
32293;DHT22;43233;48.608;8.838;2023-07-24T11:50:15;19.90;90.80
32293;DHT22;43233;48.608;8.838;2023-07-24T11:52:42;19.90;92.90
32293;DHT22;43233;48.608;8.838;2023-07-24T11:55:19;19.90;92.60
32293;DHT22;43233;48.608;8.838;2023-07-24T11:58:05;19.90;93.30
32293;DHT22;43233;48.608;8.838;2023-07-24T12:00:33;20.00;94.20
32293;DHT22;43233;48.608;8.838;2023-07-24T12:03:01;20.00;93.30
32293;DHT22;43233;48.608;8.838;2023-07-24T12:05:26;20.00;92.00
32293;DHT22;43233;48.608;8.838;2023-07-24T12:07:54;20.00;92.50
32293;DHT22;43233;48.608;8.838;2023-07-24T12:10:27;20.10;92.80
32293;DHT22;43233;48.608;8.838;2023-07-24T12:12:53;20.20;91.00
32293;DHT22;43233;48.608;8.838;2023-07-24T12:15:19;20.30;92.00
32293;DHT22;43233;48.608;8.838;2023-07-24T12:17:44;20.40;91.80
32293;DHT22;43233;48.608;8.838;2023-07-24T12:20:10;20.60;89.80
32293;DHT22;43233;48.608;8.838;2023-07-24T12:22:38;20.60;90.30
32293;DHT22;43233;48.608;8.838;2023-07-24T12:25:05;20.60;88.30
32293;DHT22;43233;48.608;8.838;2023-07-24T12:27:31;20.70;88.60
32293;DHT22;43233;48.608;8.838;2023-07-24T12:29:57;20.80;88.10
32293;DHT22;43233;48.608;8.838;2023-07-24T12:32:23;20.80;86.50
32293;DHT22;43233;48.608;8.838;2023-07-24T12:34:50;20.80;85.70
32293;DHT22;43233;48.608;8.838;2023-07-24T12:37:17;20.80;84.50
32293;DHT22;43233;48.608;8.838;2023-07-24T12:39:47;20.80;82.70
32293;DHT22;43233;48.608;8.838;2023-07-24T12:42:14;20.90;83.40
32293;DHT22;43233;48.608;8.838;2023-07-24T12:44:40;20.90;83.40
32293;DHT22;43233;48.608;8.838;2023-07-24T12:47:06;21.00;81.90
32293;DHT22;43233;48.608;8.838;2023-07-24T12:49:32;21.10;81.70
32293;DHT22;43233;48.608;8.838;2023-07-24T12:51:58;21.10;78.20
32293;DHT22;43233;48.608;8.838;2023-07-24T12:54:23;21.10;78.40
32293;DHT22;43233;48.608;8.838;2023-07-24T12:56:50;21.10;79.50
32293;DHT22;43233;48.608;8.838;2023-07-24T12:59:17;21.10;79.00
32293;DHT22;43233;48.608;8.838;2023-07-24T13:01:43;21.20;79.60
32293;DHT22;43233;48.608;8.838;2023-07-24T13:04:09;21.30;76.00
32293;DHT22;43233;48.608;8.838;2023-07-24T13:06:34;21.40;74.60
32293;DHT22;43233;48.608;8.838;2023-07-24T13:09:00;21.50;75.60
32293;DHT22;43233;48.608;8.838;2023-07-24T13:11:26;21.70;73.40
32293;DHT22;43233;48.608;8.838;2023-07-24T13:13:53;21.80;73.40
32293;DHT22;43233;48.608;8.838;2023-07-24T13:16:19;22.00;72.20
32293;DHT22;43233;48.608;8.838;2023-07-24T13:18:45;22.10;70.80
32293;DHT22;43233;48.608;8.838;2023-07-24T13:21:11;22.20;68.30
32293;DHT22;43233;48.608;8.838;2023-07-24T13:23:36;22.30;67.40
32293;DHT22;43233;48.608;8.838;2023-07-24T13:26:02;22.30;67.20
32293;DHT22;43233;48.608;8.838;2023-07-24T13:28:28;22.40;66.20
32293;DHT22;43233;48.608;8.838;2023-07-24T13:30:55;22.40;67.80
32293;DHT22;43233;48.608;8.838;2023-07-24T13:33:20;22.50;67.40
32293;DHT22;43233;48.608;8.838;2023-07-24T13:35:48;22.50;68.10
32293;DHT22;43233;48.608;8.838;2023-07-24T13:38:16;22.60;67.60
32293;DHT22;43233;48.608;8.838;2023-07-24T13:40:41;22.50;67.90
32293;DHT22;43233;48.608;8.838;2023-07-24T13:43:07;22.40;66.30
32293;DHT22;43233;48.608;8.838;2023-07-24T13:45:33;22.40;66.20
32293;DHT22;43233;48.608;8.838;2023-07-24T13:47:59;22.20;66.10
32293;DHT22;43233;48.608;8.838;2023-07-24T13:50:25;22.10;65.60
32293;DHT22;43233;48.608;8.838;2023-07-24T13:52:50;22.10;65.40
32293;DHT22;43233;48.608;8.838;2023-07-24T13:55:16;22.10;67.00
32293;DHT22;43233;48.608;8.838;2023-07-24T13:57:42;22.20;66.90
32293;DHT22;43233;48.608;8.838;2023-07-24T14:00:08;22.30;67.30
32293;DHT22;43233;48.608;8.838;2023-07-24T14:02:33;22.50;68.00
32293;DHT22;43233;48.608;8.838;2023-07-24T14:04:59;23.00;63.50
32293;DHT22;43233;48.608;8.838;2023-07-24T14:07:25;23.20;61.50
32293;DHT22;43233;48.608;8.838;2023-07-24T14:09:50;23.10;61.80
32293;DHT22;43233;48.608;8.838;2023-07-24T14:12:16;23.10;61.80
32293;DHT22;43233;48.608;8.838;2023-07-24T14:14:42;23.00;62.30
32293;DHT22;43233;48.608;8.838;2023-07-24T14:17:07;23.10;61.80
32293;DHT22;43233;48.608;8.838;2023-07-24T14:19:33;23.20;61.10
32293;DHT22;43233;48.608;8.838;2023-07-24T14:21:59;23.20;61.00
32293;DHT22;43233;48.608;8.838;2023-07-24T14:24:25;23.20;58.00
32293;DHT22;43233;48.608;8.838;2023-07-24T14:26:50;23.10;59.10
32293;DHT22;43233;48.608;8.838;2023-07-24T14:29:16;23.20;59.70
32293;DHT22;43233;48.608;8.838;2023-07-24T14:31:43;23.10;60.90
32293;DHT22;43233;48.608;8.838;2023-07-24T14:34:09;23.00;60.80
32293;DHT22;43233;48.608;8.838;2023-07-24T14:36:38;23.10;60.10
32293;DHT22;43233;48.608;8.838;2023-07-24T14:39:04;23.00;60.10
32293;DHT22;43233;48.608;8.838;2023-07-24T14:41:30;23.00;60.30
32293;DHT22;43233;48.608;8.838;2023-07-24T14:43:56;23.00;60.60
32293;DHT22;43233;48.608;8.838;2023-07-24T14:46:21;22.90;61.70
32293;DHT22;43233;48.608;8.838;2023-07-24T14:48:47;22.90;62.20
32293;DHT22;43233;48.608;8.838;2023-07-24T14:51:13;22.90;62.50
32293;DHT22;43233;48.608;8.838;2023-07-24T14:53:38;22.90;61.90
32293;DHT22;43233;48.608;8.838;2023-07-24T14:56:04;22.90;62.80
32293;DHT22;43233;48.608;8.838;2023-07-24T14:58:30;23.10;64.20
32293;DHT22;43233;48.608;8.838;2023-07-24T15:00:56;23.30;62.90
32293;DHT22;43233;48.608;8.838;2023-07-24T15:03:22;23.30;61.20
32293;DHT22;43233;48.608;8.838;2023-07-24T15:05:49;23.20;62.30
32293;DHT22;43233;48.608;8.838;2023-07-24T15:08:14;23.20;61.80
32293;DHT22;43233;48.608;8.838;2023-07-24T15:10:40;23.20;61.40
32293;DHT22;43233;48.608;8.838;2023-07-24T15:13:08;23.20;61.80
32293;DHT22;43233;48.608;8.838;2023-07-24T15:15:34;23.20;63.00
32293;DHT22;43233;48.608;8.838;2023-07-24T15:18:00;23.20;62.80
32293;DHT22;43233;48.608;8.838;2023-07-24T15:20:26;23.10;62.90
32293;DHT22;43233;48.608;8.838;2023-07-24T15:22:51;23.20;63.40
32293;DHT22;43233;48.608;8.838;2023-07-24T15:25:20;23.10;63.80
32293;DHT22;43233;48.608;8.838;2023-07-24T15:27:46;23.00;64.70